createdAt,value
2019-06-20T04:03:50.028Z,207
2019-06-20T04:07:17.973Z,211
2019-06-20T04:10:53.474Z,219
2019-06-20T04:14:21.446Z,223
2019-06-20T04:17:51.469Z,227
2019-06-20T04:21:19.410Z,231
2019-06-20T04:24:47.369Z,235
2019-06-20T04:28:15.339Z,238
2019-06-20T04:31:43.303Z,243
2019-06-20T04:35:11.253Z,255
2019-06-20T04:38:39.267Z,270
2019-06-20T04:42:07.236Z,284
2019-06-20T04:45:37.182Z,289
2019-06-20T04:49:05.183Z,292
2019-06-20T04:52:33.139Z,289
2019-06-20T04:56:01.097Z,287
2019-06-20T04:59:31.082Z,288
2019-06-20T05:02:59.076Z,293
2019-06-20T05:06:27.061Z,290
2019-06-20T05:09:55.012Z,290
2019-06-20T05:13:23.000Z,299
2019-06-20T05:16:50.970Z,319
2019-06-20T05:20:18.969Z,315
2019-06-20T05:23:46.960Z,308
2019-06-20T05:27:15.061Z,285
2019-06-20T05:30:43.113Z,268
2019-06-20T05:34:11.103Z,271
2019-06-20T05:37:39.118Z,271
2019-06-20T05:41:07.154Z,274
2019-06-20T05:44:35.137Z,282
2019-06-20T05:48:04.124Z,312
2019-06-20T05:51:32.097Z,355
2019-06-20T05:55:00.098Z,298
2019-06-20T05:58:28.114Z,288
2019-06-20T06:01:58.148Z,299
2019-06-20T06:05:26.104Z,363
2019-06-20T06:08:55.069Z,422
2019-06-20T06:12:23.039Z,549
2019-06-20T06:15:51.001Z,770
2019-06-20T06:19:18.990Z,870
2019-06-20T06:22:48.061Z,872
2019-06-20T06:26:16.030Z,857
2019-06-20T06:29:43.998Z,883
2019-06-20T06:33:11.965Z,903
2019-06-20T06:36:39.939Z,743
2019-06-20T06:40:07.897Z,664
2019-06-20T06:43:41.718Z,684
2019-06-20T06:47:07.854Z,707
2019-06-20T06:50:35.802Z,764
2019-06-20T06:54:03.768Z,821
2019-06-20T06:57:31.746Z,816
2019-06-20T07:00:59.719Z,821
2019-06-20T07:04:28.534Z,760
2019-06-20T07:07:56.506Z,772
2019-06-20T07:11:24.481Z,829
2019-06-20T07:14:52.426Z,889
2019-06-20T07:18:20.411Z,960
2019-06-20T07:21:48.394Z,896
2019-06-20T07:25:16.437Z,651
2019-06-20T07:28:44.414Z,546
2019-06-20T07:32:12.377Z,531
2019-06-20T07:35:42.313Z,498
2019-06-20T07:39:10.277Z,427
2019-06-20T07:42:38.257Z,467
2019-06-20T07:46:06.310Z,456
2019-06-20T07:49:34.300Z,452
2019-06-20T07:53:04.257Z,473
2019-06-20T07:56:32.225Z,500
2019-06-20T08:00:00.252Z,514
2019-06-20T08:03:28.161Z,539
2019-06-20T08:06:56.250Z,563
2019-06-20T08:10:24.183Z,593
2019-06-20T08:13:52.171Z,613
2019-06-20T08:17:34.675Z,617
2019-06-20T08:20:55.023Z,665
2019-06-20T08:24:22.994Z,679
2019-06-20T08:27:51.013Z,706
2019-06-20T08:31:18.960Z,729
2019-06-20T08:34:46.927Z,593
2019-06-20T08:38:14.901Z,821
2019-06-20T08:41:42.869Z,861
2019-06-20T08:45:10.826Z,796
2019-06-20T08:48:38.905Z,742
2019-06-20T08:52:08.848Z,786
2019-06-20T08:55:37.816Z,798
2019-06-20T08:59:06.797Z,1096
2019-06-20T09:02:36.824Z,1336
2019-06-20T09:06:05.828Z,1372
2019-06-20T09:09:33.782Z,1488
2019-06-20T09:13:01.761Z,1532
2019-06-20T09:16:30.721Z,1657
2019-06-20T09:19:58.689Z,1812
2019-06-20T09:23:27.645Z,1851
2019-06-20T09:26:57.622Z,1455
2019-06-20T09:30:25.596Z,1640
2019-06-20T09:33:56.536Z,1281
2019-06-20T09:37:27.466Z,1686
2019-06-20T09:40:56.883Z,1441
2019-06-20T09:44:24.517Z,1315
2019-06-20T09:47:55.916Z,1471
2019-06-20T09:51:24.564Z,1505
2019-06-20T09:54:54.517Z,1798
2019-06-20T09:58:23.486Z,1673
2019-06-20T10:01:56.228Z,1633
2019-06-20T10:05:24.360Z,1728
2019-06-20T10:08:56.508Z,1746
2019-06-20T10:12:31.787Z,1483
2019-06-20T10:15:59.759Z,1478
2019-06-20T10:19:27.919Z,1586
2019-06-20T10:22:57.292Z,1586
2019-06-20T10:26:24.828Z,1619
2019-06-20T10:29:53.785Z,1786
2019-06-20T10:33:22.726Z,1237
2019-06-20T10:36:50.691Z,1697
2019-06-20T10:40:19.667Z,1401
2019-06-20T10:43:51.649Z,1078
2019-06-20T10:47:31.847Z,971
2019-06-20T10:50:55.434Z,1664
2019-06-20T10:54:23.376Z,2034
2019-06-20T10:57:53.375Z,1561
2019-06-20T11:01:21.329Z,1280
2019-06-20T11:04:49.793Z,1185
2019-06-20T11:08:19.221Z,975
2019-06-20T11:11:50.155Z,797
2019-06-20T11:15:18.122Z,805
2019-06-20T11:18:48.772Z,697
2019-06-20T11:22:16.029Z,744
2019-06-20T11:25:46.531Z,736
2019-06-20T11:29:15.024Z,899
2019-06-20T11:32:43.974Z,1019
2019-06-20T11:36:11.970Z,1261
2019-06-20T11:39:43.160Z,1421
2019-06-20T11:43:10.842Z,1433
2019-06-20T11:46:42.653Z,1287
2019-06-20T11:50:09.719Z,1226
2019-06-20T11:53:40.621Z,1191
2019-06-20T11:57:09.614Z,1160
2019-06-20T12:00:37.592Z,1128
2019-06-20T12:04:05.541Z,1115
2019-06-20T12:07:34.502Z,1094
2019-06-20T12:11:02.471Z,1131
2019-06-20T12:14:30.442Z,1253
2019-06-20T12:17:58.417Z,1366
2019-06-20T12:21:26.379Z,1351
2019-06-20T12:24:54.337Z,1140
2019-06-20T12:28:22.310Z,1059
2019-06-20T12:31:52.771Z,892
2019-06-20T12:35:21.234Z,956
2019-06-20T12:38:51.173Z,1051
2019-06-20T12:42:19.140Z,1063
2019-06-20T12:45:49.229Z,1105
2019-06-20T12:49:18.037Z,1832
2019-06-20T12:52:50.021Z,1522
2019-06-20T12:56:17.975Z,1063
2019-06-20T12:59:48.890Z,1245
2019-06-20T13:03:17.865Z,1149
2019-06-20T13:06:49.180Z,890
2019-06-20T13:10:16.808Z,574
2019-06-20T13:13:44.746Z,533
2019-06-20T13:17:13.527Z,1263
2019-06-20T13:20:47.041Z,724
2019-06-20T13:24:23.801Z,366
2019-06-20T13:27:52.748Z,417
2019-06-20T13:31:20.743Z,143
2019-06-20T13:34:50.275Z,73
2019-06-20T13:38:18.227Z,240
2019-06-20T13:41:46.211Z,340
2019-06-20T13:45:16.174Z,207
2019-06-20T13:48:47.424Z,239
2019-06-20T13:52:17.054Z,258
2019-06-20T13:55:46.006Z,292
2019-06-20T13:59:13.953Z,2098
2019-06-20T14:02:46.810Z,538
2019-06-20T14:06:15.859Z,189
2019-06-20T14:09:46.507Z,227
2019-06-20T14:13:19.378Z,138
2019-06-20T14:16:46.782Z,281
2019-06-20T14:20:15.765Z,496
2019-06-20T14:23:48.119Z,232
2019-06-20T14:27:17.689Z,221
2019-06-20T14:30:48.618Z,342
2019-06-20T14:34:16.591Z,1813
2019-06-20T14:37:49.917Z,1459
2019-06-20T14:41:27.658Z,7166
2019-06-20T14:44:58.016Z,9784
2019-06-20T14:48:27.069Z,8963
2019-06-20T14:51:57.087Z,9214
2019-06-20T14:55:25.095Z,6978
2019-06-20T14:58:55.427Z,1737
2019-06-20T15:02:37.391Z,1279
2019-06-20T15:05:56.040Z,932
2019-06-20T15:09:25.027Z,833
2019-06-20T15:12:56.226Z,1078
2019-06-20T15:16:27.569Z,1272
2019-06-20T15:19:58.575Z,3369
2019-06-20T15:23:27.665Z,3634
2019-06-20T15:26:58.868Z,3599
2019-06-20T15:30:27.842Z,2191
2019-06-20T15:33:58.122Z,3219
2019-06-20T15:37:26.140Z,3396
2019-06-20T15:40:58.404Z,3555
2019-06-20T15:44:27.516Z,3304
2019-06-20T15:47:55.499Z,3851
2019-06-20T15:51:25.191Z,2945
2019-06-20T15:54:55.426Z,3073
2019-06-20T15:58:23.450Z,2815
2019-06-20T16:01:59.420Z,3141
2019-06-20T16:05:28.354Z,6628
2019-06-20T16:08:57.387Z,5306
2019-06-20T16:12:32.463Z,3420
2019-06-20T16:16:00.935Z,3183
2019-06-20T16:19:28.912Z,2129
2019-06-20T16:22:57.866Z,2285
2019-06-20T16:26:25.807Z,2420
2019-06-20T16:29:53.775Z,2439
2019-06-20T16:33:25.806Z,2600
2019-06-20T16:37:06.574Z,2759
2019-06-20T16:40:24.581Z,2559
2019-06-20T16:43:52.576Z,2412
2019-06-20T16:47:20.596Z,1811
2019-06-20T16:50:49.444Z,1736
2019-06-20T16:54:17.515Z,1438
2019-06-20T16:57:45.497Z,1626
2019-06-20T17:01:13.477Z,1513
2019-06-20T17:04:41.574Z,1317
2019-06-20T17:08:10.554Z,1212
2019-06-20T17:11:38.547Z,1684
2019-06-20T17:15:07.626Z,1125
2019-06-20T17:18:35.917Z,2155
2019-06-20T17:22:04.084Z,2218
2019-06-20T17:25:41.037Z,7183
2019-06-20T17:29:11.043Z,13965
2019-06-20T17:32:41.485Z,12897
2019-06-20T17:36:18.442Z,9792
2019-06-20T17:39:45.585Z,8397
2019-06-20T17:43:14.202Z,6971
2019-06-20T17:46:42.964Z,5477
2019-06-20T17:50:12.349Z,6536
2019-06-20T17:53:41.965Z,5359
2019-06-20T17:57:11.782Z,3294
2019-06-20T18:00:40.795Z,4528
2019-06-20T18:04:26.087Z,3373
2019-06-20T18:08:30.951Z,3484
2019-06-20T18:11:59.602Z,2074
2019-06-20T18:15:28.625Z,1576
2019-06-20T18:18:59.879Z,1934
2019-06-20T18:22:28.469Z,1030
2019-06-20T18:25:56.966Z,749
2019-06-20T18:29:25.883Z,646
2019-06-20T18:32:54.884Z,557
2019-06-20T18:36:23.475Z,492
2019-06-20T18:39:52.106Z,442
2019-06-20T18:43:20.929Z,408
2019-06-20T18:46:51.434Z,370
2019-06-20T18:50:21.261Z,338
2019-06-20T18:53:52.408Z,316
2019-06-20T18:57:20.661Z,275
2019-06-20T19:00:49.019Z,246
2019-06-20T19:04:17.374Z,215
2019-06-20T19:07:46.535Z,189
2019-06-20T19:11:14.648Z,172
2019-06-20T19:14:42.719Z,155
2019-06-20T19:18:11.472Z,133
2019-06-20T19:21:39.940Z,118
2019-06-20T19:25:08.589Z,104
2019-06-20T19:28:37.855Z,88
2019-06-20T19:32:14.176Z,73
2019-06-20T19:35:46.593Z,59
2019-06-20T19:39:14.731Z,49
2019-06-20T19:42:45.929Z,40
2019-06-20T19:49:48.353Z,25
2019-06-20T19:53:17.979Z,19
2019-06-20T19:56:47.309Z,15
2019-06-20T20:00:15.441Z,12
2019-06-20T20:03:43.518Z,8
2019-06-20T20:07:14.665Z,6
2019-06-20T20:10:43.712Z,4
2019-06-20T20:14:13.718Z,3
2019-06-20T20:17:41.770Z,2
2019-06-20T20:21:09.873Z,1
2019-06-20T20:24:38.765Z,2
2019-06-20T20:28:07.920Z,1
2019-06-20T20:31:36.136Z,0
2019-06-20T20:35:04.289Z,1
2019-06-20T20:38:32.428Z,0
2019-06-20T20:42:00.599Z,0
2019-06-20T20:45:30.190Z,0
2019-06-20T20:49:00.272Z,0
2019-06-20T20:52:28.404Z,0
2019-06-20T20:55:56.478Z,0
2019-06-20T20:59:25.508Z,0
2019-06-20T21:02:53.589Z,0
2019-06-20T21:06:21.668Z,0
2019-06-20T21:09:49.807Z,0
2019-06-20T21:13:17.924Z,0
2019-06-20T21:16:46.100Z,0
2019-06-20T21:20:14.189Z,0
2019-06-20T21:23:42.390Z,0
2019-06-20T21:27:10.583Z,0
2019-06-20T21:30:39.653Z,0
2019-06-20T21:34:07.882Z,0
2019-06-20T21:37:36.205Z,0
2019-06-20T21:41:05.837Z,0
2019-06-20T21:44:34.008Z,0
2019-06-20T21:48:02.147Z,0
2019-06-20T21:51:30.240Z,0
2019-06-20T21:54:58.370Z,0
2019-06-20T21:58:26.608Z,0
